Time;durP1;ratioP1;P1;durP2;ratioP2;P2;SDS_P1;SDS_P2;PMS_P1;PMS_P2;Temp;Humidity;BMP_temperature;BMP_pressure;BME280_temperature;BME280_humidity;BME280_pressure;Samples;Min_cycle;Max_cycle;Signal;HPM_P1;HPM_P2
2021/08/07 00:01:58;;;;;;;11.35;4.97;;;;;;;21.06;63.26;98960.55;1784376;80;21224;-76
2021/08/07 00:05:04;;;;;;;11.35;5.37;;;;;;;21.08;63.19;98970.03;1783577;80;21371;-86
2021/08/07 00:08:10;;;;;;;11.93;5.42;;;;;;;21.10;63.13;98974.74;1784361;80;21141;-86
2021/08/07 00:11:15;;;;;;;16.10;4.97;;;;;;;21.10;63.06;98971.41;1784434;80;21292;-77
2021/08/07 00:14:20;;;;;;;19.92;5.25;;;;;;;21.11;63.05;98973.63;1785621;80;21284;-75
2021/08/07 00:17:25;;;;;;;7.80;4.25;;;;;;;21.10;62.99;98971.41;1784304;80;21315;-85
2021/08/07 00:20:31;;;;;;;9.68;4.97;;;;;;;21.12;62.87;98971.95;1785652;80;21307;-76
2021/08/07 00:23:37;;;;;;;11.35;4.42;;;;;;;21.13;62.72;98969.47;1785658;80;21276;-76
2021/08/07 00:26:43;;;;;;;10.58;4.17;;;;;;;21.17;62.57;98969.72;1785014;80;21267;-76
2021/08/07 00:29:50;;;;;;;14.70;5.08;;;;;;;21.20;62.54;98970.56;1785420;80;21172;-76
2021/08/07 00:32:56;;;;;;;10.00;4.17;;;;;;;21.23;62.36;98965.02;1785697;80;21291;-76
2021/08/07 00:36:02;;;;;;;17.98;4.87;;;;;;;21.28;62.21;98960.84;1785308;80;21296;-86
2021/08/07 00:39:07;;;;;;;11.55;4.65;;;;;;;21.32;62.03;98956.42;1784374;80;21757;-85
2021/08/07 00:42:12;;;;;;;8.15;4.53;;;;;;;21.36;61.93;98961.16;1785351;80;21790;-86
2021/08/07 00:45:20;;;;;;;8.30;4.47;;;;;;;21.41;61.87;98951.97;1785788;80;21514;-86
2021/08/07 00:48:26;;;;;;;14.75;4.97;;;;;;;21.43;61.91;98953.90;1785838;80;21199;-85
2021/08/07 00:51:33;;;;;;;18.42;5.17;;;;;;;21.45;61.95;98960.00;1784934;80;21291;-76
2021/08/07 00:54:39;;;;;;;12.43;4.60;;;;;;;21.46;62.25;98970.04;1785725;80;21271;-76
2021/08/07 00:57:47;;;;;;;21.30;5.85;;;;;;;21.41;62.71;98982.00;1784370;80;21244;-76
2021/08/07 01:00:52;;;;;;;14.65;5.47;;;;;;;21.29;63.52;98981.41;1785427;80;21852;-76
2021/08/07 01:04:00;;;;;;;15.65;7.30;;;;;;;21.15;64.15;98986.69;1785809;80;21137;-86
2021/08/07 01:07:22;;;;;;;20.45;9.25;;;;;;;21.04;64.70;98987.81;1745394;82;21223;-86
2021/08/07 01:10:42;;;;;;;21.27;9.53;;;;;;;20.93;65.09;98982.77;1746710;82;21820;-75
2021/08/07 01:13:55;;;;;;;16.80;8.95;;;;;;;20.86;65.68;98984.17;1746803;82;21266;-75
2021/08/07 01:17:03;;;;;;;18.48;8.65;;;;;;;20.79;65.91;98987.77;1718244;82;21215;-77
2021/08/07 01:20:26;;;;;;;20.23;8.18;;;;;;;20.77;66.04;98984.44;1746797;82;21255;-76
2021/08/07 01:24:05;;;;;;;17.20;7.20;;;;;;;20.75;66.13;98981.08;1746915;82;21275;-85
2021/08/07 01:27:26;;;;;;;18.70;7.78;;;;;;;20.76;65.94;98980.83;1745484;82;21330;-85
2021/08/07 01:30:42;;;;;;;18.25;7.40;;;;;;;20.81;65.72;98973.05;1746711;82;21242;-85
2021/08/07 01:33:50;;;;;;;12.80;6.60;;;;;;;20.85;65.66;98973.62;1746655;82;21302;-76
2021/08/07 01:37:06;;;;;;;14.28;6.28;;;;;;;20.87;65.68;98977.50;1746652;82;21330;-76
2021/08/07 01:40:14;;;;;;;18.20;6.08;;;;;;;20.89;65.61;98982.25;1746698;82;21223;-76
2021/08/07 01:43:22;;;;;;;19.75;6.95;;;;;;;20.92;65.53;98988.63;1746685;82;21219;-85
2021/08/07 01:46:29;;;;;;;15.00;7.10;;;;;;;20.93;65.64;98975.83;1746689;82;21303;-76
2021/08/07 01:49:41;;;;;;;13.43;6.87;;;;;;;20.99;65.72;98979.47;1746689;82;21271;-76
2021/08/07 01:52:49;;;;;;;10.93;5.47;;;;;;;21.07;65.66;98981.67;1746940;82;21310;-76
2021/08/07 01:56:01;;;;;;;;;;;;;;;21.16;65.59;98990.30;1722073;82;21355;-76
2021/08/07 01:59:13;;;;;;;16.73;6.15;;;;;;;21.23;65.46;98997.00;1711358;84;20207;-76
2021/08/07 02:02:19;;;;;;;14.55;6.92;;;;;;;21.28;65.29;98996.44;1689777;84;21204;-76
2021/08/07 02:05:26;;;;;;;21.73;7.42;;;;;;;21.33;65.19;98990.07;1685921;85;21352;-76
2021/08/07 02:08:31;;;;;;;14.87;6.78;;;;;;;21.38;65.20;99001.19;1736916;82;21691;-76
2021/08/07 02:11:43;;;;;;;11.10;5.83;;;;;;;21.40;65.29;99005.91;1782429;80;21320;-76
2021/08/07 02:14:50;;;;;;;12.40;6.45;;;;;;;21.41;65.45;99015.38;1768628;80;21259;-76
2021/08/07 02:17:57;;;;;;;11.18;5.72;;;;;;;21.38;65.61;99009.53;1764238;80;21295;-76
2021/08/07 02:21:03;;;;;;;15.18;6.53;;;;;;;21.34;65.62;99016.77;1782577;80;21188;-77
2021/08/07 02:24:09;;;;;;;13.38;5.87;;;;;;;21.26;65.91;99022.27;1782390;80;21149;-76
2021/08/07 02:27:14;;;;;;;13.70;6.00;;;;;;;21.17;66.19;99016.46;1782387;80;21825;-76
2021/08/07 02:30:21;;;;;;;14.90;5.83;;;;;;;21.09;66.36;99010.61;1780833;80;21782;-76
2021/08/07 02:33:28;;;;;;;13.60;5.28;;;;;;;21.01;66.64;98996.69;1764001;80;21292;-76
2021/08/07 02:36:32;;;;;;;22.40;5.15;;;;;;;20.95;66.86;99003.92;1782563;80;21157;-86
2021/08/07 02:39:39;;;;;;;14.90;6.60;;;;;;;20.93;67.16;99013.34;1782466;80;21817;-86
2021/08/07 02:42:44;;;;;;;16.20;5.72;;;;;;;20.92;67.42;98996.95;1782262;80;21303;-76
2021/08/07 02:45:52;;;;;;;19.70;7.45;;;;;;;20.91;67.64;98987.79;1781952;80;21303;-76
2021/08/07 02:48:59;;;;;;;11.95;5.42;;;;;;;20.92;67.79;98976.95;1781451;80;21824;-76
2021/08/07 02:52:05;;;;;;;9.63;5.62;;;;;;;20.94;67.83;98986.41;1782489;80;21192;-76
2021/08/07 02:55:12;;;;;;;13.75;5.97;;;;;;;20.98;67.92;98986.67;1782399;80;21154;-76
2021/08/07 02:58:21;;;;;;;17.20;6.47;;;;;;;21.05;68.01;98987.25;1781109;80;21165;-86
2021/08/07 03:01:27;;;;;;;13.25;5.65;;;;;;;21.10;67.93;98990.86;1781728;80;21166;-86
2021/08/07 03:04:33;;;;;;;17.25;5.15;;;;;;;21.17;67.68;98991.44;1782564;80;21264;-86
2021/08/07 03:07:40;;;;;;;15.10;5.10;;;;;;;21.23;67.51;98988.66;1781883;80;21224;-76
2021/08/07 03:10:45;;;;;;;9.90;5.87;;;;;;;21.28;67.39;98975.58;1785354;80;21283;-76
2021/08/07 03:13:51;;;;;;;15.03;5.37;;;;;;;21.39;67.35;98980.60;1785203;80;21165;-76
2021/08/07 03:16:59;;;;;;;14.05;6.30;;;;;;;21.48;67.21;98993.39;1784738;80;21876;-86
2021/08/07 03:20:06;;;;;;;17.87;6.53;;;;;;;21.56;67.04;98990.89;1784493;80;21295;-86
2021/08/07 03:23:15;;;;;;;11.20;6.45;;;;;;;21.66;66.92;98993.65;1785854;80;21718;-86
2021/08/07 03:26:23;;;;;;;15.48;6.85;;;;;;;21.77;66.94;98999.19;1786093;80;21912;-76
2021/08/07 03:29:31;;;;;;;19.37;7.12;;;;;;;21.87;66.79;98996.38;1784974;80;21165;-77
2021/08/07 03:32:39;;;;;;;17.42;8.03;;;;;;;22.01;66.58;98996.06;1785855;80;21295;-86
2021/08/07 03:35:44;;;;;;;20.02;7.47;;;;;;;22.18;66.36;98985.45;1785912;80;21892;-86
2021/08/07 03:38:49;;;;;;;18.02;8.58;;;;;;;22.37;66.02;98987.05;1784348;80;21327;-85
2021/08/07 03:41:55;;;;;;;28.95;11.33;;;;;;;22.53;65.64;98985.01;1784373;80;21292;-76
2021/08/07 03:45:00;;;;;;;26.35;10.32;;;;;;;22.67;65.19;98983.25;1784615;80;21224;-76
2021/08/07 03:48:07;;;;;;;23.02;11.00;;;;;;;22.82;64.95;98978.70;1785783;80;21300;-77
2021/08/07 03:51:13;;;;;;;18.85;9.65;;;;;;;22.96;64.24;98985.36;1785052;80;21295;-76
2021/08/07 03:54:19;;;;;;;23.42;8.65;;;;;;;23.10;63.65;98986.37;1785944;80;22119;-87
2021/08/07 03:57:26;;;;;;;19.05;8.00;;;;;;;23.21;63.15;98979.58;1784390;80;21173;-87
2021/08/07 04:00:37;;;;;;;20.70;7.65;;;;;;;23.32;62.53;98978.91;1784179;80;21287;-87
2021/08/07 04:03:44;;;;;;;22.67;7.53;;;;;;;23.42;62.49;98974.63;1785688;80;21264;-86
2021/08/07 04:06:52;;;;;;;14.70;7.20;;;;;;;23.55;62.27;98992.66;1784735;80;21777;-87
2021/08/07 04:10:00;;;;;;;16.90;6.72;;;;;;;23.67;61.96;99000.13;1772115;80;21917;-87
2021/08/07 04:13:05;;;;;;;10.80;6.33;;;;;;;23.77;61.45;98992.78;1772182;81;21316;-86
2021/08/07 04:16:11;;;;;;;21.15;7.00;;;;;;;23.80;61.30;98981.83;1771538;80;21685;-87
2021/08/07 04:19:17;;;;;;;13.75;6.42;;;;;;;23.89;61.24;98990.39;1762015;81;21280;-86
2021/08/07 04:22:30;;;;;;;10.68;5.67;;;;;;;23.99;61.15;98991.67;1772322;80;21920;-87
2021/08/07 04:25:37;;;;;;;14.83;7.80;;;;;;;24.10;60.93;98977.88;1772071;81;21300;-87
2021/08/07 04:28:42;;;;;;;13.10;6.62;;;;;;;24.20;60.54;98977.75;1772204;81;21794;-86
2021/08/07 04:31:48;;;;;;;15.03;7.50;;;;;;;24.38;60.27;98980.36;1770439;80;21189;-87
2021/08/07 04:34:55;;;;;;;21.95;8.20;;;;;;;24.47;59.97;98975.77;1770661;81;21290;-76
2021/08/07 04:38:03;;;;;;;18.55;7.65;;;;;;;24.57;59.98;98982.35;1760120;81;21142;-76
2021/08/07 04:41:08;;;;;;;21.15;8.95;;;;;;;24.60;59.64;98992.34;1771480;81;21287;-76
2021/08/07 04:44:14;;;;;;;27.32;9.35;;;;;;;24.64;59.88;98992.01;1772104;81;21778;-76
2021/08/07 04:47:19;;;;;;;16.10;8.68;;;;;;;24.68;60.14;98993.64;1772060;81;21216;-75
2021/08/07 04:50:23;;;;;;;22.13;8.68;;;;;;;24.71;60.00;99000.88;1772064;81;21256;-76
2021/08/07 04:53:28;;;;;;;19.37;9.35;;;;;;;24.69;60.55;98991.11;1772109;81;21153;-76
2021/08/07 04:56:38;;;;;;;31.53;9.53;;;;;;;24.69;60.62;98987.74;1772353;81;21295;-86
2021/08/07 04:59:45;;;;;;;24.52;9.60;;;;;;;24.65;60.85;98988.64;1772103;81;21296;-86
2021/08/07 05:02:51;;;;;;;24.37;9.28;;;;;;;24.68;61.14;98998.67;1772064;81;21347;-87
2021/08/07 05:06:00;;;;;;;15.48;9.13;;;;;;;24.79;61.11;98983.14;1771660;81;21370;-86
2021/08/07 05:09:08;;;;;;;26.55;9.00;;;;;;;24.91;61.11;98990.52;1770748;80;21208;-84
2021/08/07 05:12:28;;;;;;;19.35;8.13;;;;;;;25.01;61.02;98990.93;1770612;80;21181;-85
2021/08/07 05:15:35;;;;;;;22.02;8.13;;;;;;;25.19;61.35;98991.52;1770594;81;21281;-87
2021/08/07 05:18:42;;;;;;;16.32;7.53;;;;;;;25.37;60.62;98996.25;1770712;81;21213;-86
2021/08/07 05:21:50;;;;;;;22.77;8.55;;;;;;;25.51;60.67;98989.30;1770651;80;22164;-87
2021/08/07 05:24:57;;;;;;;19.67;9.50;;;;;;;25.64;59.94;98992.71;1772124;81;21153;-84
2021/08/07 05:28:02;;;;;;;21.80;8.80;;;;;;;25.73;59.36;98993.63;1772204;81;21269;-84
2021/08/07 05:31:07;;;;;;;17.70;8.80;;;;;;;25.79;58.78;98995.83;1771361;81;21280;-84
2021/08/07 05:34:12;;;;;;;21.37;8.38;;;;;;;25.91;59.86;98984.11;1772212;81;21141;-84
2021/08/07 05:37:19;;;;;;;26.33;9.58;;;;;;;26.05;59.45;98983.55;1772157;81;21308;-85
2021/08/07 05:40:24;;;;;;;16.85;9.38;;;;;;;26.13;58.58;98977.23;1771882;81;21287;-84
2021/08/07 05:43:30;;;;;;;22.42;9.15;;;;;;;26.20;58.74;98975.40;1772094;81;21872;-84
2021/08/07 05:46:36;;;;;;;23.35;9.58;;;;;;;26.30;59.15;98977.16;1771790;81;21264;-87
2021/08/07 05:49:43;;;;;;;20.05;9.85;;;;;;;26.47;58.96;98981.59;1770662;80;21168;-87
2021/08/07 05:52:49;;;;;;;26.77;10.20;;;;;;;26.54;57.95;98979.22;1771923;81;21268;-86
2021/08/07 05:55:54;;;;;;;20.37;10.15;;;;;;;26.57;57.89;98977.16;1771671;81;21797;-86
2021/08/07 05:59:00;;;;;;;25.52;10.75;;;;;;;26.65;57.49;98986.25;1741399;82;21304;-86
2021/08/07 06:02:07;;;;;;;32.93;10.53;;;;;;;26.78;57.10;98969.72;1758008;81;21296;-88
2021/08/07 06:05:17;;;;;;;21.02;9.85;;;;;;;26.94;56.38;98965.39;1765909;81;21626;-87
2021/08/07 06:08:25;;;;;;;25.55;10.65;;;;;;;27.11;55.72;98962.77;1756468;80;21188;-86
2021/08/07 06:11:33;;;;;;;21.50;10.45;;;;;;;27.29;55.55;98957.27;1770596;80;21794;-86
2021/08/07 06:14:39;;;;;;;16.97;9.00;;;;;;;27.47;54.32;98948.64;1748679;81;21260;-86
2021/08/07 06:17:46;;;;;;;15.55;9.53;;;;;;;27.64;52.86;98942.30;1695264;84;21816;-76
2021/08/07 06:20:53;;;;;;;30.50;10.38;;;;;;;27.81;52.17;98933.73;1741037;82;21307;-87
2021/08/07 06:23:59;;;;;;;29.80;10.85;;;;;;;28.11;51.69;98935.69;1698672;84;21287;-87
2021/08/07 06:27:06;;;;;;;28.40;9.55;;;;;;;28.41;49.61;98929.75;1740349;82;21201;-87
2021/08/07 06:30:11;;;;;;;23.62;9.93;;;;;;;28.68;48.90;98931.45;1758049;81;21233;-88
2021/08/07 06:33:16;;;;;;;27.30;11.20;;;;;;;28.85;48.62;98927.01;1750191;81;21304;-87
2021/08/07 06:36:22;;;;;;;26.45;10.05;;;;;;;28.97;48.40;98937.03;1741612;82;21288;-87
2021/08/07 06:39:27;;;;;;;20.77;9.78;;;;;;;29.19;45.50;98931.82;1745000;81;21249;-87
2021/08/07 06:42:33;;;;;;;26.73;10.00;;;;;;;29.41;43.58;98933.03;1705830;82;21793;-76
2021/08/07 06:45:56;;;;;;;32.50;10.40;;;;;;;29.58;42.94;98946.27;1742082;81;21287;-77
2021/08/07 06:49:01;;;;;;;29.48;10.80;;;;;;;29.78;45.45;98952.61;1705789;84;21829;-77
2021/08/07 06:52:06;;;;;;;28.35;11.10;;;;;;;29.88;45.23;98955.64;1741377;81;21197;-77
2021/08/07 06:55:11;;;;;;;23.60;9.98;;;;;;;29.78;45.63;98954.02;1705930;83;21272;-87
2021/08/07 06:58:17;;;;;;;40.20;10.13;;;;;;;29.71;46.40;98955.09;1705888;84;22183;-77
2021/08/07 07:01:22;;;;;;;29.12;10.65;;;;;;;29.63;46.15;98953.12;1741492;81;21213;-77
2021/08/07 07:04:29;;;;;;;36.33;10.32;;;;;;;29.63;45.83;98956.52;1749299;81;21841;-87
2021/08/07 07:07:36;;;;;;;27.42;10.53;;;;;;;29.73;45.79;98955.58;1705888;84;21287;-77
2021/08/07 07:10:41;;;;;;;40.85;11.65;;;;;;;29.89;47.05;98945.19;1741411;81;21288;-76
2021/08/07 07:13:48;;;;;;;31.45;10.30;;;;;;;30.00;48.14;98947.86;1720736;83;21721;-87
2021/08/07 07:16:58;;;;;;;16.20;8.85;;;;;;;30.13;46.37;98944.03;1672314;86;21197;-77
2021/08/07 07:20:04;;;;;;;26.12;12.03;;;;;;;30.28;44.13;98942.03;1721412;83;21184;-88
2021/08/07 07:23:12;;;;;;;27.27;11.60;;;;;;;30.30;46.98;98938.87;1671613;86;21409;-87
2021/08/07 07:26:18;;;;;;;24.15;11.35;;;;;;;30.18;48.91;98925.51;1720506;82;21357;-87
2021/08/07 07:29:25;;;;;;;23.05;12.50;;;;;;;29.93;50.11;98925.03;1672814;86;21174;-87
2021/08/07 07:32:31;;;;;;;35.60;13.55;;;;;;;29.65;50.66;98929.69;1720568;83;21334;-87
2021/08/07 07:35:37;;;;;;;29.60;12.63;;;;;;;29.46;51.51;98931.45;1672699;86;21337;-77
2021/08/07 07:38:42;;;;;;;31.77;12.73;;;;;;;29.52;51.74;98934.91;1721018;83;21211;-76
2021/08/07 07:41:48;;;;;;;27.87;12.75;;;;;;;29.63;49.79;98935.39;1672019;86;21316;-88
2021/08/07 07:44:54;;;;;;;23.55;12.73;;;;;;;29.72;50.16;98953.93;1709677;83;21784;-88
2021/08/07 07:48:01;;;;;;;30.52;12.00;;;;;;;29.79;50.28;98960.48;1718541;82;21252;-87
2021/08/07 07:51:07;;;;;;;28.05;13.18;;;;;;;29.78;49.39;98965.28;1718411;82;21287;-88
2021/08/07 07:54:13;;;;;;;31.00;12.43;;;;;;;29.73;49.11;98964.03;1718803;82;21260;-87
2021/08/07 07:57:19;;;;;;;34.85;12.05;;;;;;;29.64;50.12;98953.39;1718791;82;21760;-76
2021/08/07 08:00:25;;;;;;;22.40;11.78;;;;;;;29.54;50.72;98944.69;1718138;82;21708;-76
2021/08/07 08:03:31;;;;;;;30.62;12.00;;;;;;;29.47;51.42;98932.27;1714327;82;21275;-87
2021/08/07 08:06:38;;;;;;;24.18;11.15;;;;;;;29.42;51.24;98946.53;1722209;82;21286;-86
2021/08/07 08:09:45;;;;;;;29.52;12.20;;;;;;;29.34;50.59;98955.81;1715431;82;21293;-76
2021/08/07 08:12:50;;;;;;;37.83;13.53;;;;;;;29.28;51.41;98977.11;1715959;82;21708;-76
2021/08/07 08:15:55;;;;;;;34.43;13.45;;;;;;;29.25;51.32;98998.05;1694752;84;21326;-87
2021/08/07 08:19:02;;;;;;;18.45;9.43;;;;;;;29.15;51.91;99015.28;1695002;84;21866;-76
2021/08/07 08:22:07;;;;;;;35.23;10.23;;;;;;;28.99;51.09;99047.31;1695028;84;21218;-76
2021/08/07 08:25:14;;;;;;;19.32;9.88;;;;;;;28.77;51.53;99061.70;1703004;83;21300;-87
2021/08/07 08:28:19;;;;;;;25.52;9.05;;;;;;;28.34;49.89;99045.24;1715688;83;21276;-77
2021/08/07 08:31:25;;;;;;;33.35;10.70;;;;;;;28.34;49.89;99045.24;1711995;83;21300;-76
2021/08/07 08:34:31;;;;;;;28.35;10.45;;;;;;;28.09;50.67;99030.75;1698054;83;21268;-87
2021/08/07 08:37:36;;;;;;;19.55;9.73;;;;;;;27.82;50.00;99025.31;1704193;83;21249;-76
2021/08/07 08:40:42;;;;;;;32.28;10.93;;;;;;;27.82;50.00;99025.31;1709660;83;21176;-87
2021/08/07 08:43:51;;;;;;;33.13;11.20;;;;;;;27.77;51.27;99044.53;1703795;83;21849;-86
2021/08/07 08:46:55;;;;;;;31.37;11.28;;;;;;;27.72;53.91;99046.07;1687381;83;21284;-76
2021/08/07 08:50:00;;;;;;;27.07;11.63;;;;;;;27.69;55.74;99053.11;1702638;83;21354;-86
2021/08/07 08:53:05;;;;;;;25.12;11.45;;;;;;;27.70;55.90;99060.38;1709419;83;21241;-87
2021/08/07 08:56:11;;;;;;;33.10;10.80;;;;;;;27.79;55.83;99061.05;1699178;83;21820;-86
2021/08/07 08:59:17;;;;;;;23.70;10.35;;;;;;;27.84;55.60;99056.13;1709637;83;21304;-76
2021/08/07 09:02:22;;;;;;;23.35;10.38;;;;;;;27.93;55.40;99059.00;1709217;83;21269;-76
2021/08/07 09:05:27;;;;;;;21.60;10.25;;;;;;;27.99;53.20;99050.67;1703842;83;21229;-76
2021/08/07 09:08:33;;;;;;;29.05;9.43;;;;;;;28.09;52.32;99058.86;1707258;83;21159;-76
2021/08/07 09:11:38;;;;;;;21.77;9.40;;;;;;;28.31;52.38;99051.50;1708484;83;21744;-76
2021/08/07 09:14:56;;;;;;;20.10;9.48;;;;;;;28.60;51.51;99058.84;1708703;83;21177;-86
2021/08/07 09:18:22;;;;;;;19.50;8.40;;;;;;;28.89;50.78;99067.27;1705287;83;21193;-76
2021/08/07 09:21:31;;;;;;;;;;;;;;;29.20;49.63;99082.10;1714197;83;21264;-76
2021/08/07 09:24:35;;;;;;;25.92;8.18;;;;;;;29.50;47.41;99078.05;1712904;83;20197;-76
2021/08/07 09:27:51;;;;;;;22.87;8.60;;;;;;;29.62;47.21;99078.25;1709314;83;21268;-76
2021/08/07 09:30:55;;;;;;;23.05;7.90;;;;;;;29.69;47.83;99074.37;1708058;83;21844;-87
2021/08/07 09:34:26;;;;;;;21.45;8.30;;;;;;;29.78;48.67;99076.59;1705594;83;21268;-86
2021/08/07 09:37:31;;;;;;;21.17;7.92;;;;;;;29.75;50.29;99081.48;1708980;83;21312;-76
2021/08/07 09:40:57;;;;;;;17.92;7.75;;;;;;;29.62;49.27;99071.80;1712061;83;21741;-77
2021/08/07 09:44:05;;;;;;;25.08;8.63;;;;;;;29.46;48.90;99079.90;1710054;83;21804;-86
2021/08/07 09:47:16;;;;;;;20.50;7.25;;;;;;;29.25;48.23;99083.34;1708248;83;21286;-87
2021/08/07 09:50:31;;;;;;;19.62;6.95;;;;;;;29.10;48.89;99088.05;1710270;83;21730;-76
2021/08/07 09:53:36;;;;;;;21.73;7.83;;;;;;;28.76;49.49;99113.52;1711706;83;21264;-86
2021/08/07 09:57:02;;;;;;;19.80;7.80;;;;;;;28.76;49.49;99113.52;1706887;83;21294;-87
2021/08/07 10:00:07;;;;;;;26.12;9.08;;;;;;;28.68;48.76;99115.71;1712646;83;21249;-87
2021/08/07 10:03:29;;;;;;;26.45;9.95;;;;;;;28.70;48.02;99113.42;1704765;83;21854;-87
2021/08/07 10:06:36;;;;;;;20.77;10.20;;;;;;;28.78;49.81;99110.37;1707733;83;21278;-76
2021/08/07 10:09:42;;;;;;;23.98;9.43;;;;;;;28.58;52.32;99121.63;1705055;83;21280;-87
2021/08/07 10:12:53;;;;;;;27.77;9.35;;;;;;;28.58;52.32;99121.63;1703626;83;21301;-87
2021/08/07 10:16:01;;;;;;;23.85;9.33;;;;;;;28.43;51.20;99130.50;1707746;83;21169;-77
2021/08/07 10:19:06;;;;;;;23.42;9.80;;;;;;;28.33;50.80;99119.51;1704276;83;21262;-86
2021/08/07 10:22:13;;;;;;;23.92;9.58;;;;;;;28.17;51.29;99118.48;1706005;83;21183;-87
2021/08/07 10:25:22;;;;;;;18.40;8.50;;;;;;;28.13;52.28;99100.60;1698369;84;21351;-87
2021/08/07 10:28:28;;;;;;;27.62;11.63;;;;;;;28.19;51.15;99110.58;1701430;83;21877;-76
2021/08/07 10:31:35;;;;;;;21.23;9.83;;;;;;;28.28;50.96;99104.43;1714739;83;21323;-76
2021/08/07 10:34:43;;;;;;;28.52;10.30;;;;;;;28.38;51.51;99101.95;1714240;83;21189;-86
2021/08/07 10:37:50;;;;;;;18.67;9.65;;;;;;;28.47;50.64;99085.94;1714546;83;21161;-86
2021/08/07 10:40:56;;;;;;;25.95;10.72;;;;;;;28.59;50.73;99076.88;1715506;83;21343;-86
2021/08/07 10:44:01;;;;;;;31.85;11.45;;;;;;;28.73;49.49;99076.17;1716336;83;21221;-86
2021/08/07 10:47:07;;;;;;;34.60;11.08;;;;;;;28.84;48.14;99070.23;1715124;83;21209;-76
2021/08/07 10:50:37;;;;;;;35.98;12.73;;;;;;;28.87;47.97;99071.00;1716344;83;21303;-75
2021/08/07 10:53:43;;;;;;;42.73;13.28;;;;;;;28.90;47.39;99059.11;1716455;83;21268;-74
2021/08/07 10:56:53;;;;;;;34.20;11.53;;;;;;;29.00;46.40;99061.63;1715457;83;22105;-84
2021/08/07 10:59:58;;;;;;;40.12;11.48;;;;;;;29.06;45.28;99058.90;1716655;83;21268;-84
2021/08/07 11:03:22;;;;;;;37.00;11.20;;;;;;;29.09;46.19;99054.03;1700188;83;21316;-85
2021/08/07 11:06:28;;;;;;;36.40;10.85;;;;;;;29.14;46.02;99055.27;1674293;83;21344;-85
2021/08/07 11:09:37;;;;;;;36.30;11.55;;;;;;;29.16;46.16;99061.39;1691135;83;21152;-75
2021/08/07 11:12:42;;;;;;;34.27;10.60;;;;;;;29.22;46.30;99055.87;1722071;83;21257;-85
2021/08/07 11:15:48;;;;;;;31.50;10.20;;;;;;;29.28;44.46;99067.80;1712698;83;21208;-77
2021/08/07 11:18:55;;;;;;;31.35;11.03;;;;;;;29.28;44.46;99067.80;1724085;83;21819;-86
2021/08/07 11:22:04;;;;;;;29.42;10.20;;;;;;;29.25;44.12;99076.89;1725852;83;21842;-87
2021/08/07 11:25:19;;;;;;;31.52;10.98;;;;;;;29.26;44.88;99082.18;1724901;82;21256;-86
2021/08/07 11:28:25;;;;;;;30.25;10.00;;;;;;;29.32;45.18;99085.69;1726196;83;21691;-76
2021/08/07 11:31:31;;;;;;;36.95;11.20;;;;;;;29.34;44.83;99084.77;1725734;83;21328;-77
2021/08/07 11:34:37;;;;;;;31.90;10.48;;;;;;;29.34;44.71;99088.98;1771281;81;21295;-75
2021/08/07 11:37:42;;;;;;;36.80;9.90;;;;;;;29.38;44.97;99097.61;1770713;81;21331;-76
2021/08/07 11:41:05;;;;;;;22.82;9.05;;;;;;;29.37;44.55;99099.61;1771748;81;21303;-76
2021/08/07 11:44:09;;;;;;;22.10;8.38;;;;;;;29.37;44.55;99099.61;1772111;81;21304;-76
2021/08/07 11:47:15;;;;;;;33.65;8.55;;;;;;;29.35;44.89;99103.31;1770567;81;21189;-76
2021/08/07 11:50:21;;;;;;;21.73;8.90;;;;;;;29.29;44.55;99110.27;1772024;81;21269;-74
2021/08/07 11:53:28;;;;;;;28.45;8.00;;;;;;;29.25;45.24;99093.78;1771784;81;21307;-76
2021/08/07 11:56:35;;;;;;;25.50;8.90;;;;;;;29.28;46.10;99110.03;1772083;81;21177;-76
2021/08/07 11:59:42;;;;;;;21.45;9.60;;;;;;;29.27;45.19;99112.02;1770439;81;21702;-76
2021/08/07 12:02:47;;;;;;;23.10;8.43;;;;;;;29.18;45.91;99115.98;1772206;81;21268;-76
2021/08/07 12:06:03;;;;;;;25.75;10.20;;;;;;;29.06;46.40;99122.23;1771982;81;21298;-76
2021/08/07 12:09:11;;;;;;;33.45;10.48;;;;;;;28.98;47.21;99121.62;1772295;81;21789;-87
2021/08/07 12:12:17;;;;;;;23.57;10.25;;;;;;;28.94;48.74;99119.21;1770779;81;21694;-87
2021/08/07 12:15:23;;;;;;;23.42;9.60;;;;;;;28.95;49.90;99121.72;1772049;81;21259;-87
2021/08/07 12:18:29;;;;;;;23.18;8.65;;;;;;;29.01;50.75;99113.36;1782939;80;21300;-87
2021/08/07 12:21:40;;;;;;;29.48;9.05;;;;;;;29.01;50.09;99118.99;1785847;80;21199;-87
2021/08/07 12:24:45;;;;;;;28.77;10.68;;;;;;;28.99;49.79;99124.72;1778959;80;21802;-77
2021/08/07 12:28:14;;;;;;;29.60;9.55;;;;;;;28.93;50.27;99133.00;1754709;82;21315;-77
2021/08/07 12:31:18;;;;;;;20.27;9.95;;;;;;;28.89;51.05;99132.00;1754202;80;21298;-87
2021/08/07 12:34:39;;;;;;;24.35;10.15;;;;;;;28.89;51.82;99121.59;1754567;82;21275;-87
2021/08/07 12:37:44;;;;;;;25.80;9.95;;;;;;;28.93;51.54;99117.52;1753946;82;21299;-76
2021/08/07 12:40:51;;;;;;;28.90;9.70;;;;;;;28.93;50.08;99120.34;1754676;80;21303;-76
2021/08/07 12:43:57;;;;;;;34.92;10.90;;;;;;;28.88;49.96;99116.27;1754786;82;21257;-76
2021/08/07 12:47:03;;;;;;;33.45;10.48;;;;;;;28.80;50.54;99105.27;1754689;80;21302;-76
2021/08/07 12:50:21;;;;;;;26.77;10.88;;;;;;;28.75;50.91;99108.22;1754773;80;21272;-76
2021/08/07 12:53:26;;;;;;;30.37;10.48;;;;;;;28.72;51.05;99102.66;1784209;80;21252;-76
2021/08/07 12:56:32;;;;;;;32.08;11.05;;;;;;;28.73;50.81;99125.41;1791269;80;21331;-76
2021/08/07 12:59:39;;;;;;;30.15;11.53;;;;;;;28.78;49.50;99125.84;1785764;80;21296;-86
2021/08/07 13:02:44;;;;;;;25.90;9.80;;;;;;;28.82;50.68;99133.06;1782779;80;21131;-86
2021/08/07 13:05:50;;;;;;;29.65;9.60;;;;;;;28.87;49.92;99132.91;1783912;80;21235;-74
2021/08/07 13:08:56;;;;;;;23.85;10.53;;;;;;;28.90;48.86;99154.78;1784899;80;21287;-76
2021/08/07 13:12:23;;;;;;;27.27;10.13;;;;;;;28.93;50.35;99138.05;1784162;80;21326;-76
2021/08/07 13:15:28;;;;;;;25.97;10.35;;;;;;;29.15;50.49;99141.97;1785536;80;21826;-75
2021/08/07 13:18:34;;;;;;;22.35;9.38;;;;;;;29.15;50.49;99141.97;1777335;80;21786;-75
2021/08/07 13:21:40;;;;;;;33.88;10.40;;;;;;;29.16;49.49;99145.02;1772045;81;21292;-86
2021/08/07 13:24:47;;;;;;;28.98;9.35;;;;;;;29.17;50.28;99141.90;1772130;81;21845;-86
2021/08/07 13:27:53;;;;;;;30.10;9.73;;;;;;;29.25;49.91;99152.33;1772141;81;21833;-85
2021/08/07 13:31:00;;;;;;;22.27;9.75;;;;;;;29.29;48.00;99132.80;1772178;81;21315;-86
2021/08/07 13:34:05;;;;;;;27.58;9.73;;;;;;;29.31;48.61;99135.28;1772181;81;21272;-86
2021/08/07 13:37:09;;;;;;;29.07;9.08;;;;;;;29.34;48.27;99143.08;1772142;81;21327;-86
2021/08/07 13:40:15;;;;;;;21.97;9.95;;;;;;;29.35;48.18;99141.33;1767516;81;21153;-86
2021/08/07 13:43:21;;;;;;;28.42;10.10;;;;;;;29.29;48.36;99135.61;1771501;81;21281;-86
2021/08/07 13:46:26;;;;;;;27.17;8.98;;;;;;;29.29;48.36;99135.61;1770624;81;21335;-85
2021/08/07 13:49:32;;;;;;;30.43;9.93;;;;;;;29.14;48.14;99126.23;1771984;81;21173;-85
2021/08/07 13:52:37;;;;;;;26.20;10.00;;;;;;;29.06;49.14;99137.72;1770216;81;21275;-86
2021/08/07 13:55:43;;;;;;;27.93;10.13;;;;;;;29.04;49.61;99130.19;1771869;80;21308;-86
2021/08/07 13:58:49;;;;;;;23.20;9.53;;;;;;;29.04;50.50;99135.82;1770939;81;21351;-76
2021/08/07 14:01:54;;;;;;;28.73;10.00;;;;;;;29.00;50.12;99149.71;1772103;81;21268;-76
2021/08/07 14:05:00;;;;;;;31.93;10.65;;;;;;;29.00;50.12;99149.71;1772227;81;21280;-86
2021/08/07 14:08:06;;;;;;;30.08;9.50;;;;;;;28.99;49.96;99152.28;1772105;81;21288;-75
2021/08/07 14:11:12;;;;;;;31.50;9.78;;;;;;;28.91;49.85;99138.14;1772013;81;21299;-77
2021/08/07 14:14:18;;;;;;;23.52;9.48;;;;;;;28.91;49.85;99138.14;1772100;81;21264;-77
2021/08/07 14:17:24;;;;;;;26.30;10.48;;;;;;;28.85;50.40;99140.86;1772012;81;21288;-87
2021/08/07 14:20:29;;;;;;;25.32;9.48;;;;;;;28.79;51.35;99134.53;1781517;80;21284;-76
2021/08/07 14:23:35;;;;;;;39.23;9.88;;;;;;;28.72;51.89;99144.86;1785650;80;21187;-77
2021/08/07 14:26:40;;;;;;;31.10;9.90;;;;;;;28.65;51.55;99150.11;1785798;80;21825;-76
2021/08/07 14:29:47;;;;;;;35.85;9.90;;;;;;;28.61;52.21;99147.72;1785823;80;21292;-87
2021/08/07 14:32:53;;;;;;;25.60;9.18;;;;;;;28.61;52.47;99137.88;1785763;80;21205;-87